No particular awareness of the weather is required.    There are no Weather-warnings


Meteo18 Weather Cam more information Meteo18 Weather Cam


Thunder radar more information blitzortung!


Rain radar more information rain snow radar


Visit our other weather sites:

Template documentation
and downloads

And another site



Weather Underground History page Text

Daily Summary for August 18, 2017 Units:  English    Metric   Both
« Previous Day
Next Day »
Daily Weekly Monthly Yearly Custom
  High: Low: Average:
Temperature: 68.7 °F 61.3 °F 64.2 °F
Dew Point: 63.7 °F 59.7 °F 61.7 °F
Humidity: 96 % 82 % 92 %
Wind Speed: 11 mph 0 mph 2.7 mph
Wind Gust: 16 mph - -
Wind:- - SW
Pressure: 30.1 in 30.1 in -
Precipitation: 0.28 in    
Historical Graphs
 
 
Tabular Data for August 18, 2017
Time Temperature Dew Point Pressure Wind Wind Speed Wind Gust Humidity Rainfall Rate (Hourly)
00:02 68.7 °F 63 °F 30.1 in WNW 4 mph 6 mph 82 % 0 in
00:07 68.5 °F 62.8 °F 30.1 in West 1 mph 5 mph 82 % 0 in
00:12 68.5 °F 62.8 °F 30.1 in WSW 4 mph 6 mph 82 % 0 in
00:17 68.5 °F 62.8 °F 30.1 in WSW 2 mph 6 mph 82 % 0 in
00:22 68.5 °F 63.1 °F 30.1 in WNW 1 mph 6 mph 83 % 0 in
00:32 68.2 °F 62.8 °F 30.1 in Calm   6 mph 83 % 0 in
00:42 67.8 °F 62.8 °F 30.1 in Calm   4 mph 84 % 0 in
00:47 67.1 °F 61.7 °F 30.1 in East 4 mph 4 mph 83 % 0 in
00:52 66.2 °F 61.5 °F 30.1 in Calm   4 mph 85 % 0 in
00:57 65.7 °F 61.3 °F 30.1 in Calm   4 mph 86 % 0 in
01:02 65.5 °F 61.2 °F 30.1 in Calm   4 mph 86 % 0 in
01:12 64.9 °F 61 °F 30.1 in Calm   2 mph 87 % 0 in
01:17 64.6 °F 61 °F 30.1 in Calm   2 mph 88 % 0 in
01:22 64.2 °F 60.6 °F 30.1 in Calm   2 mph 88 % 0 in
01:27 64 °F 60.4 °F 30.1 in Calm   1 mph 88 % 0 in
01:32 63.9 °F 60.6 °F 30.1 in Calm   1 mph 89 % 0 in
01:37 63.7 °F 60.4 °F 30.1 in Calm   1 mph 89 % 0 in
01:42 63.7 °F 60.6 °F 30.1 in Calm   1 mph 90 % 0 in
01:52 63.7 °F 60.6 °F 30.1 in Calm     90 % 0 in
01:57 63.7 °F 60.6 °F 30.1 in Calm     90 % 0 in
02:02 63.5 °F 60.4 °F 30.1 in Calm     90 % 0 in
02:07 63.5 °F 60.4 °F 30.1 in Calm     90 % 0 in
02:12 63.3 °F 60.3 °F 30.1 in Calm     90 % 0 in
02:17 63.3 °F 60.6 °F 30.1 in Calm     91 % 0 in
02:22 63.3 °F 60.6 °F 30.1 in Calm     91 % 0 in
02:27 63.5 °F 60.8 °F 30.1 in Calm     91 % 0 in
02:32 63.7 °F 61.3 °F 30.1 in Calm     92 % 0 in
02:37 63.7 °F 61 °F 30.1 in SSW 1 mph   91 % 0 in
02:42 63.9 °F 61.2 °F 30.1 in Calm   1 mph 91 % 0 in
02:47 63.9 °F 61.2 °F 30.1 in Calm   1 mph 91 % 0 in
02:52 63.7 °F 61 °F 30.1 in Calm   2 mph 91 % 0 in
02:57 63.7 °F 61 °F 30.1 in SSW 1 mph 2 mph 91 % 0 in
03:02 63.7 °F 61.3 °F 30.1 in Calm   2 mph 92 % 0 in
03:07 63.7 °F 61.3 °F 30.1 in SSW 1 mph 1 mph 92 % 0 in
03:12 63.7 °F 61.3 °F 30.1 in SSW 1 mph 2 mph 92 % 0 in
03:17 63.7 °F 61.3 °F 30.1 in Calm   2 mph 92 % 0 in
03:22 63.7 °F 61.3 °F 30.1 in Calm   2 mph 92 % 0 in
03:27 63.7 °F 61.3 °F 30.1 in Calm   1 mph 92 % 0 in
03:32 63.9 °F 61.5 °F 30.1 in Calm   1 mph 92 % 0 in
03:37 63.9 °F 61.5 °F 30.1 in Calm     92 % 0 in
03:42 63.9 °F 61.2 °F 30.1 in Calm     91 % 0 in
03:47 63.9 °F 61.5 °F 30.1 in SSW 1 mph   92 % 0 in
03:52 63.7 °F 61.3 °F 30.1 in SSW 1 mph 2 mph 92 % 0 in
03:57 63.7 °F 61.3 °F 30.1 in SSW 1 mph 2 mph 92 % 0 in
04:02 63.5 °F 61.2 °F 30.1 in Calm   3 mph 92 % 0 in
04:07 63.5 °F 61.2 °F 30.1 in SW 1 mph 3 mph 92 % 0 in
04:12 63.5 °F 61.2 °F 30.1 in SW 1 mph 3 mph 92 % 0 in
04:17 63.5 °F 61.2 °F 30.1 in SSW 1 mph 3 mph 92 % 0 in
04:22 63.7 °F 61.3 °F 30.1 in SSW 1 mph 3 mph 92 % 0 in
04:27 63.5 °F 61.2 °F 30.1 in Calm   3 mph 92 % 0 in
04:32 63.3 °F 61 °F 30.1 in SSW 1 mph 3 mph 92 % 0 in
04:37 63.3 °F 61 °F 30.1 in SW 1 mph 2 mph 92 % 0 in
04:42 63.3 °F 61.3 °F 30.1 in Calm   2 mph 93 % 0 in
04:47 63.3 °F 61.3 °F 30.1 in Calm   2 mph 93 % 0 in
04:52 63.1 °F 61.2 °F 30.1 in Calm   2 mph 93 % 0 in
05:02 63 °F 61 °F 30.1 in Calm   2 mph 93 % 0 in
05:12 62.8 °F 60.8 °F 30.1 in Calm   2 mph 93 % 0 in
05:22 62.8 °F 60.8 °F 30.1 in Calm   1 mph 93 % 0 in
05:27 62.8 °F 61 °F 30.1 in Calm   2 mph 94 % 0 in
05:32 62.8 °F 61 °F 30.1 in Calm   2 mph 94 % 0 in
05:42 63 °F 61.2 °F 30.1 in SSE 1 mph 2 mph 94 % 0 in
05:47 62.8 °F 61 °F 30.1 in Calm   1 mph 94 % 0 in
05:52 62.8 °F 61 °F 30.1 in Calm   1 mph 94 % 0 in
05:57 62.8 °F 61 °F 30.1 in Calm   2 mph 94 % 0 in
06:02 62.6 °F 60.8 °F 30.1 in Calm   2 mph 94 % 0 in
06:07 62.6 °F 60.8 °F 30.1 in SE 1 mph 1 mph 94 % 0 in
06:12 62.6 °F 60.8 °F 30.1 in SE 1 mph 1 mph 94 % 0 in
06:17 62.6 °F 60.8 °F 30.1 in Calm   1 mph 94 % 0 in
06:22 62.4 °F 60.6 °F 30.1 in Calm   1 mph 94 % 0 in
06:32 62.2 °F 60.4 °F 30.1 in Calm   2 mph 94 % 0 in
06:37 62.2 °F 60.4 °F 30.1 in Calm   1 mph 94 % 0 in
06:42 62.1 °F 60.3 °F 30.1 in Calm   1 mph 94 % 0 in
06:47 62.2 °F 60.8 °F 30.1 in SW 1 mph 2 mph 95 % 0 in
06:52 62.2 °F 60.8 °F 30.1 in SW 1 mph 2 mph 95 % 0 in
06:57 62.1 °F 60.6 °F 30.1 in Calm   2 mph 95 % 0 in
07:02 61.9 °F 60.4 °F 30.1 in SW 2 mph 2 mph 95 % 0 in
07:12 62.1 °F 60.6 °F 30.1 in SSW 1 mph 3 mph 95 % 0 in
07:17 62.1 °F 60.6 °F 30.1 in Calm   3 mph 95 % 0 in
07:22 62.1 °F 60.6 °F 30.1 in Calm   3 mph 95 % 0 in
07:32 62.4 °F 61.3 °F 30.1 in Calm   1 mph 96 % 0 in
07:42 62.8 °F 61.3 °F 30.1 in Calm   4 mph 95 % 0 in
07:47 62.8 °F 61.7 °F 30.1 in Calm   3 mph 96 % 0 in
07:52 63 °F 61.9 °F 30.1 in SW 2 mph 3 mph 96 % 0 in
08:02 63.3 °F 62.2 °F 30.1 in SSW 2 mph 4 mph 96 % 0 in
08:12 63.9 °F 62.4 °F 30.1 in WSW 6 mph 6 mph 95 % 0 in
08:17 64 °F 62.6 °F 30.1 in WSW 6 mph 6 mph 95 % 0 in
08:22 64.2 °F 62.8 °F 30.1 in WSW 4 mph 8 mph 95 % 0 in
08:32 64.4 °F 62.6 °F 30.1 in SW 1 mph 8 mph 94 % 0 in
08:42 64.8 °F 63 °F 30.1 in SW 2 mph 7 mph 94 % 0 in
08:52 64.9 °F 62.8 °F 30.1 in SW 4 mph 6 mph 93 % 0 in
08:57 65.1 °F 63 °F 30.1 in West 3 mph 7 mph 93 % 0 in
09:02 65.1 °F 63 °F 30.1 in SSE 6 mph 7 mph 93 % 0 in
09:12 65.1 °F 63 °F 30.1 in WSW 2 mph 7 mph 93 % 0 in
09:17 65.1 °F 62.8 °F 30.1 in West 1 mph 7 mph 92 % 0 in
09:22 65.3 °F 63.1 °F 30.1 in WSW 2 mph 7 mph 93 % 0 in
09:32 65.5 °F 63.1 °F 30.1 in WSW 3 mph 8 mph 92 % 0 in
09:42 65.7 °F 63.3 °F 30.1 in SW 4 mph 8 mph 92 % 0 in
09:52 65.8 °F 63.5 °F 30.1 in SW 3 mph 7 mph 92 % 0 in
09:57 65.8 °F 63.5 °F 30.1 in SW 6 mph 6 mph 92 % 0 in
10:02 66 °F 63.7 °F 30.1 in WSW 2 mph 7 mph 92 % 0 in
10:12 66.4 °F 63.7 °F 30.1 in SW 8 mph 8 mph 91 % 0 in
10:17 66.4 °F 63.3 °F 30.1 in SW 3 mph 7 mph 90 % 0 in
10:22 66.4 °F 63.3 °F 30.1 in South 1 mph 7 mph 90 % 0 in
10:32 66.6 °F 63.5 °F 30.1 in SW 5 mph 9 mph 90 % 0 in
10:37 66.6 °F 63.1 °F 30.1 in WSW 3 mph 9 mph 89 % 0 in
10:42 66.6 °F 63.1 °F 30.1 in SW 4 mph 9 mph 89 % 0 in
10:47 66.6 °F 63.1 °F 30.1 in West 1 mph 7 mph 89 % 0 in
10:52 66.6 °F 63.1 °F 30.1 in WSW 5 mph 7 mph 89 % 0 in
11:02 66.7 °F 63.3 °F 30.1 in WNW 3 mph 10 mph 89 % 0 in
11:12 66.7 °F 63.3 °F 30.1 in WSW 5 mph 10 mph 89 % 0 in
11:22 66 °F 63.3 °F 30.1 in West 3 mph 11 mph 91 % 0 in
11:27 65.8 °F 63.1 °F 30.1 in WSW 4 mph 11 mph 91 % 0 in
11:32 65.7 °F 63.3 °F 30.1 in SW 3 mph 11 mph 92 % 0 in
11:37 65.7 °F 63.3 °F 30.1 in WSW 9 mph 10 mph 92 % 0 in
11:42 65.5 °F 63.1 °F 30.1 in WSW 7 mph 10 mph 92 % 0 in
11:52 65.5 °F 63.3 °F 30.1 in WSW 4 mph 12 mph 93 % 0.01 in
12:02 65.3 °F 63.1 °F 30.1 in SW 4 mph 10 mph 93 % 0.02 in
12:12 65.3 °F 63.5 °F 30.1 in SW 1 mph 9 mph 94 % 0.03 in
12:17 65.3 °F 63.5 °F 30.1 in SW 5 mph 7 mph 94 % 0.03 in
12:22 65.3 °F 63.5 °F 30.1 in WSW 5 mph 7 mph 94 % 0.03 in
12:32 65.1 °F 63.3 °F 30.1 in WSW 3 mph 8 mph 94 % 0.03 in
12:42 65.1 °F 63.3 °F 30.1 in WSW 3 mph 8 mph 94 % 0.03 in
12:47 65.1 °F 63.3 °F 30.1 in WSW 3 mph 7 mph 94 % 0.02 in
12:52 65.1 °F 63.3 °F 30.1 in WSW 2 mph 7 mph 94 % 0.02 in
12:57 65.1 °F 63.3 °F 30.1 in WNW 1 mph 6 mph 94 % 0.02 in
13:02 64.9 °F 62.8 °F 30.1 in WNW 6 mph 6 mph 93 % 0.02 in
13:12 64.8 °F 62.4 °F 30.1 in SW 6 mph 7 mph 92 % 0.02 in
13:17 64.6 °F 61.5 °F 30.1 in West 6 mph 13 mph 90 % 0.03 in
13:22 64.4 °F 61.3 °F 30.1 in WSW 4 mph 13 mph 90 % 0.03 in
13:27 64.2 °F 61.5 °F 30.1 in NNW 4 mph 10 mph 91 % 0.04 in
13:32 64 °F 61.3 °F 30.1 in SW 3 mph 10 mph 91 % 0.04 in
13:42 63.9 °F 61.5 °F 30.1 in SW 4 mph 9 mph 92 % 0.07 in
13:52 63.7 °F 61.3 °F 30.1 in SW 7 mph 9 mph 92 % 0.06 in
14:02 63.3 °F 61.3 °F 30.1 in SSW 3 mph 9 mph 93 % 0.06 in
14:07 63.3 °F 61.3 °F 30.1 in WSW 3 mph 10 mph 93 % 0.06 in
14:12 63.3 °F 61.3 °F 30.1 in West 3 mph 10 mph 93 % 0.07 in
14:17 63.3 °F 61.5 °F 30.1 in SSW 2 mph 10 mph 94 % 0.07 in
14:22 63.5 °F 61.7 °F 30.1 in WSW 5 mph 6 mph 94 % 0.07 in
14:32 63.3 °F 61.5 °F 30.1 in SW 4 mph 10 mph 94 % 0.06 in
14:42 63.3 °F 61.5 °F 30.1 in SW 4 mph 10 mph 94 % 0.06 in
14:47 63.3 °F 61.5 °F 30.1 in WSW 3 mph 11 mph 94 % 0.06 in
14:52 63.3 °F 61.5 °F 30.1 in West 5 mph 11 mph 94 % 0.06 in
14:57 63.5 °F 61.7 °F 30.1 in WSW 6 mph 10 mph 94 % 0.06 in
15:02 63.5 °F 61.7 °F 30.1 in WSW 1 mph 10 mph 94 % 0.06 in
15:07 63.5 °F 61.7 °F 30.1 in SW 1 mph 7 mph 94 % 0.05 in
15:12 63.5 °F 61.7 °F 30.1 in SW 3 mph 7 mph 94 % 0.05 in
15:17 63.5 °F 61.7 °F 30.1 in Calm   7 mph 94 % 0.05 in
15:22 63.5 °F 62.1 °F 30.1 in WSW 7 mph 7 mph 95 % 0.04 in
15:27 63.5 °F 62.1 °F 30.1 in SW 4 mph 7 mph 95 % 0.03 in
15:32 63.5 °F 62.1 °F 30.1 in SW 4 mph 7 mph 95 % 0.04 in
15:37 63.7 °F 62.2 °F 30.1 in WSW 5 mph 8 mph 95 % 0.03 in
15:42 63.7 °F 62.2 °F 30.1 in SW 4 mph 8 mph 95 % 0.03 in
15:47 63.7 °F 62.2 °F 30.1 in SSW 3 mph 7 mph 95 % 0.02 in
15:52 63.9 °F 62.4 °F 30.1 in WNW 2 mph 7 mph 95 % 0.02 in
15:57 64 °F 62.6 °F 30.1 in SW 3 mph 7 mph 95 % 0.02 in
16:02 64.4 °F 63 °F 30.1 in West 3 mph 7 mph 95 % 0.02 in
16:12 64.4 °F 62.6 °F 30.1 in SW 3 mph 11 mph 94 % 0.01 in
16:17 64.6 °F 62.8 °F 30.1 in SW 4 mph 11 mph 94 % 0.01 in
16:22 64.8 °F 63 °F 30.1 in SW 7 mph 11 mph 94 % 0.01 in
16:32 64.9 °F 63.1 °F 30.1 in SSW 11 mph 11 mph 94 % 0 in
16:37 65.5 °F 63.3 °F 30.1 in WSW 6 mph 12 mph 93 % 0 in
16:42 65.8 °F 63.7 °F 30.1 in West 7 mph 12 mph 93 % 0 in
16:52 65.8 °F 62.8 °F 30.1 in SW 3 mph 12 mph 90 % 0 in
16:57 66.6 °F 63.1 °F 30.1 in WSW 10 mph 12 mph 89 % 0 in
17:02 66.9 °F 63.3 °F 30.1 in SW 5 mph 14 mph 88 % 0 in
17:07 67.1 °F 63.1 °F 30.1 in WSW 8 mph 16 mph 87 % 0 in
17:12 67.5 °F 63.5 °F 30.1 in WSW 6 mph 16 mph 87 % 0 in
17:17 67.8 °F 63.5 °F 30.1 in SW 3 mph 14 mph 86 % 0 in
17:22 67.6 °F 63.3 °F 30.1 in WSW 5 mph 14 mph 86 % 0 in
17:27 67.5 °F 63.1 °F 30.1 in SW 8 mph 12 mph 86 % 0 in
17:32 67.3 °F 62.6 °F 30.1 in WSW 8 mph 12 mph 85 % 0 in
17:37 67.5 °F 62.8 °F 30.1 in West 5 mph 12 mph 85 % 0 in
17:42 67.5 °F 62.8 °F 30.1 in WNW 2 mph 12 mph 85 % 0 in
17:47 67.6 °F 62.2 °F 30.1 in SSW 5 mph 12 mph 83 % 0 in
17:52 67.6 °F 63 °F 30.1 in SSW 10 mph 12 mph 85 % 0.01 in
17:57 67.5 °F 62.8 °F 30.1 in WSW 5 mph 14 mph 85 % 0.01 in
18:02 67.3 °F 63 °F 30.1 in WSW 6 mph 14 mph 86 % 0.01 in
18:07 66.7 °F 62.4 °F 30.1 in WSW 5 mph 14 mph 86 % 0.01 in
18:12 66.6 °F 63 °F 30.1 in WSW 3 mph 10 mph 88 % 0.01 in
18:17 66.4 °F 62.8 °F 30.1 in WSW 2 mph 10 mph 88 % 0.01 in
18:27 66.4 °F 62.8 °F 30.1 in WSW 1 mph 10 mph 88 % 0.01 in
18:32 66.4 °F 62.8 °F 30.1 in NW 4 mph 6 mph 88 % 0.01 in
18:42 64.2 °F 61 °F 30.1 in WSW 3 mph 10 mph 89 % 0.01 in
18:52 63.3 °F 60.6 °F 30.1 in ESE 2 mph 13 mph 91 % 0.09 in
19:02 62.8 °F 60.1 °F 30.1 in SSW 3 mph 11 mph 91 % 0.09 in
19:07 62.8 °F 59.7 °F 30.1 in SW 3 mph 4 mph 90 % 0.09 in
19:12 62.8 °F 59.7 °F 30.1 in SW 5 mph 6 mph 90 % 0.09 in
19:17 63 °F 59.7 °F 30.1 in West 2 mph 7 mph 89 % 0.09 in
19:22 63.1 °F 60.1 °F 30.1 in SSW 4 mph 8 mph 90 % 0.09 in
19:32 63.1 °F 60.1 °F 30.1 in SW 8 mph 8 mph 90 % 0.09 in
19:37 63.1 °F 60.1 °F 30.1 in WSW 2 mph 8 mph 90 % 0.02 in
19:42 63.1 °F 60.4 °F 30.1 in WSW 5 mph 9 mph 91 % 0 in
19:52 63 °F 60.3 °F 30.1 in WSW 6 mph 10 mph 91 % 0 in
19:57 63 °F 60.3 °F 30.1 in SW 4 mph 10 mph 91 % 0 in
20:02 63 °F 60.3 °F 30.1 in WSW 6 mph 10 mph 91 % 0 in
20:07 63 °F 60.3 °F 30.1 in SW 4 mph 9 mph 91 % 0 in
20:12 63 °F 60.3 °F 30.1 in WSW 4 mph 9 mph 91 % 0 in
20:17 63 °F 60.3 °F 30.1 in WSW 3 mph 8 mph 91 % 0 in
20:22 62.8 °F 60.1 °F 30.1 in SW 4 mph 8 mph 91 % 0 in
20:27 62.8 °F 60.1 °F 30.1 in SW 5 mph 8 mph 91 % 0 in
20:32 62.8 °F 60.1 °F 30.1 in SW 2 mph 8 mph 91 % 0 in
20:37 62.8 °F 60.1 °F 30.1 in SW 3 mph 7 mph 91 % 0 in
20:42 62.8 °F 60.4 °F 30.1 in WSW 3 mph 7 mph 92 % 0 in
20:47 62.6 °F 59.9 °F 30.1 in SW 3 mph 8 mph 91 % 0 in
20:57 62.4 °F 60.1 °F 30.1 in SW 3 mph 8 mph 92 % 0 in
21:02 62.4 °F 60.4 °F 30.1 in SW 2 mph 8 mph 93 % 0 in
21:07 62.4 °F 60.4 °F 30.1 in SW 3 mph 8 mph 93 % 0 in
21:12 62.4 °F 60.4 °F 30.1 in WSW 2 mph 6 mph 93 % 0 in
21:17 62.4 °F 60.4 °F 30.1 in WSW 3 mph 6 mph 93 % 0 in
21:22 62.4 °F 60.4 °F 30.1 in SW 4 mph 6 mph 93 % 0 in
21:27 62.4 °F 60.4 °F 30.1 in WSW 3 mph 6 mph 93 % 0 in
21:32 62.4 °F 60.4 °F 30.1 in SW 3 mph 6 mph 93 % 0 in
21:37 62.4 °F 60.4 °F 30.1 in WSW 3 mph 6 mph 93 % 0 in
21:42 62.2 °F 60.4 °F 30.1 in SW 2 mph 6 mph 94 % 0 in
21:47 62.2 °F 60.4 °F 30.1 in SW 4 mph 6 mph 94 % 0 in
21:57 62.2 °F 60.4 °F 30.1 in SSW 4 mph 6 mph 94 % 0 in
22:02 62.1 °F 60.3 °F 30.1 in SSW 2 mph 6 mph 94 % 0 in
22:07 62.1 °F 60.3 °F 30.1 in SW 6 mph 6 mph 94 % 0 in
22:12 62.2 °F 60.4 °F 30.1 in SSW 2 mph 7 mph 94 % 0 in
22:17 62.4 °F 60.6 °F 30.1 in WSW 3 mph 9 mph 94 % 0 in
22:22 62.4 °F 60.6 °F 30.1 in WSW 3 mph 9 mph 94 % 0 in
22:32 62.4 °F 60.6 °F 30.1 in WSW 3 mph 9 mph 94 % 0 in
22:42 62.4 °F 60.6 °F 30.1 in SW 5 mph 10 mph 94 % 0 in
22:52 62.2 °F 60.4 °F 30.1 in SW 5 mph 9 mph 94 % 0 in
23:02 62.2 °F 60.4 °F 30.1 in SSW 4 mph 10 mph 94 % 0 in
23:12 62.1 °F 60.3 °F 30.1 in SW 3 mph 9 mph 94 % 0 in
23:17 61.9 °F 60.1 °F 30.1 in SSW 2 mph 8 mph 94 % 0 in
23:22 61.9 °F 60.1 °F 30.1 in SW 4 mph 8 mph 94 % 0 in
23:32 61.7 °F 59.9 °F 30.1 in SW 3 mph 7 mph 94 % 0 in
23:42 61.5 °F 60.1 °F 30.1 in SW 5 mph 7 mph 95 % 0 in
23:52 61.5 °F 60.1 °F 30.1 in SW 3 mph 7 mph 95 % 0 in
23:57 61.3 °F 59.9 °F 30.1 in WSW 4 mph 9 mph 95 % 0 in
Meteo18
Compliments of Weather Underground - 4 mb

Script developed by  Jim McMurry - jmcmurry@mwt.net Adapted for the template by  Wim van der Kuil - Leuven-Template.eu

You find our weather info also at:

European Weather Network

Weather Underground

Equipment we use:

Weather-station
Davis Vue

Weather-program
Meteohub

Weather-server
Raspberry PI 2 B+

Provider
1 and 1

Davis Vue

Meteohub

Raspberry PI 2 B+

1 and 1